Stations météo

réclame
Mon MeteoGroup
Bari, Italie (16271): Température de l'air & dewpoint: 08.12.2018 11:00:00 - 14.12.2018 11:00:00 (CET)Bari, Italie (16271): Vitesse du vent: 08.12.2018 11:00:00 - 14.12.2018 11:00:00 (CET)Bari, Italie (16271): Direction du vent: 08.12.2018 11:00:00 - 14.12.2018 11:00:00 (CET)Bari, Italie (16271): reduced air pressure: 08.12.2018 11:00:00 - 14.12.2018 11:00:00 (CET)Bari, Italie (16271): Quantités de précipitations: 08.12.2018 11:00:00 - 14.12.2018 11:00:00 (CET)
Date & Time tt [°C] td [°C] ff [km/h] ff [knt] dd ppp [hPa] rr [mm]
14.12.2018 11:00:00 12,6 9,8 15 8 NW 1010,2 -
14.12.2018 10:00:00 14,1 12,6 2 1 S 1010,5 -
14.12.2018 09:00:00 12,5 10,9 2 1 S 1010,7 -
14.12.2018 08:00:00 12,7 11,3 11 6 W 1010,3 -
14.12.2018 07:00:00 11,8 9,2 8 4 S 1010,4 -
14.12.2018 06:00:00 11,8 9,2 9 5 W 1010,6 -
14.12.2018 05:00:00 11,6 9,0 5 3 S 1010,9 -
14.12.2018 04:00:00 11,4 8,8 0 0 N 1011,4 -
14.12.2018 03:00:00 11,4 8,8 8 4 S 1011,7 -
14.12.2018 02:00:00 11,8 9,9 11 6 S 1011,7 -
14.12.2018 01:00:00 12,0 8,4 13 7 S 1011,5 0,0
14.12.2018 00:00:00 11,4 8,0 11 6 S 1011,6 -
13.12.2018 23:00:00 11,4 8,0 8 4 S 1011,7 -
13.12.2018 22:00:00 11,8 8,4 11 6 S 1011,4 -
13.12.2018 21:00:00 11,5 9,6 13 7 S 1011,6 -
13.12.2018 20:00:00 11,5 9,2 15 8 S 1011,5 -
13.12.2018 19:00:00 11,7 9,8 11 6 S 1011,6 -
13.12.2018 18:00:00 11,8 9,9 4 2 S 1011,8 -
13.12.2018 17:00:00 11,8 8,2 2 1 S 1012,0 -
13.12.2018 16:00:00 12,1 8,3 4 2 S 1011,9 -
13.12.2018 15:00:00 12,1 8,3 5 3 S 1012,1 -
13.12.2018 14:00:00 11,8 7,9 11 6 S 1012,4 -
13.12.2018 13:00:00 11,3 7,6 11 6 S 1013,1 -
13.12.2018 12:00:00 10,6 6,9 15 8 S 1013,6 -
13.12.2018 11:00:00 9,6 7,9 9 5 S 1014,7 -
13.12.2018 10:00:00 9,4 6,3 16 9 S 1015,3 -
13.12.2018 09:00:00 9,3 5,8 18 10 S 1015,6 -
13.12.2018 08:00:00 8,6 4,4 13 7 S 1015,6 -
13.12.2018 07:00:00 8,4 3,8 15 8 S 1015,7 0,0
13.12.2018 06:00:00 8,7 3,7 16 9 S 1015,9 -
13.12.2018 05:00:00 7,7 3,3 13 7 S 1016,7 -
13.12.2018 04:00:00 7,7 2,9 15 8 S 1017,3 -
13.12.2018 03:00:00 7,5 2,9 15 8 S 1017,7 -
13.12.2018 02:00:00 7,2 3,0 13 7 S 1018,2 -
13.12.2018 01:00:00 6,3 2,5 13 7 S 1018,6 0,0
13.12.2018 00:00:00 6,4 2,8 13 7 S 1019,0 -
12.12.2018 23:00:00 6,5 2,9 13 7 S 1019,3 -
12.12.2018 22:00:00 6,9 3,1 11 6 S 1019,6 -
12.12.2018 21:00:00 7,3 3,1 13 7 S 1020,0 -
12.12.2018 20:00:00 7,8 3,4 13 7 S 1020,2 -
12.12.2018 19:00:00 8,0 3,4 9 5 S 1020,1 0,0
12.12.2018 18:00:00 9,2 3,3 9 5 S 1019,9 -
12.12.2018 17:00:00 10,1 2,6 8 4 S 1019,9 -
12.12.2018 16:00:00 10,9 2,1 13 7 W 1020,0 -
12.12.2018 15:00:00 11,4 2,6 13 7 W 1020,1 -
12.12.2018 14:00:00 12,3 3,4 9 5 NW 1019,9 -
12.12.2018 13:00:00 12,9 4,5 5 3 NW 1020,3 0,0
12.12.2018 12:00:00 11,4 5,0 5 3 NW 1020,9 -
12.12.2018 11:00:00 10,4 5,5 9 5 NW 1021,6 -
12.12.2018 10:00:00 8,9 5,0 5 3 W 1021,7 -
12.12.2018 09:00:00 6,6 3,4 11 6 W 1021,2 -
12.12.2018 08:00:00 4,9 2,0 13 7 W 1020,9 -
12.12.2018 07:00:00 5,0 2,0 15 8 W 1020,4 -
12.12.2018 06:00:00 4,9 2,0 15 8 W 1020,3 -
12.12.2018 05:00:00 5,3 2,3 13 7 W 1020,0 -
12.12.2018 04:00:00 5,4 2,2 13 7 W 1020,2 -
12.12.2018 03:00:00 6,7 2,7 11 6 W 1020,0 -
12.12.2018 02:00:00 8,3 1,8 9 5 NW 1019,8 -
12.12.2018 01:00:00 7,0 2,8 16 9 W 1020,0 -
12.12.2018 00:00:00 6,9 3,1 15 8 W 1020,1 -
11.12.2018 23:00:00 7,8 4,5 22 12 NW 1020,7 -
11.12.2018 22:00:00 6,9 3,3 15 8 W 1019,5 -
11.12.2018 21:00:00 7,2 3,0 11 6 W 1019,5 -
11.12.2018 20:00:00 8,1 2,7 11 6 W 1019,2 -
11.12.2018 19:00:00 9,8 2,3 16 9 NW 1019,2 -
11.12.2018 18:00:00 9,8 2,8 16 9 NW 1018,7 -
11.12.2018 17:00:00 10,3 2,8 24 13 NW 1018,4 -
11.12.2018 16:00:00 10,7 4,3 41 22 NW 1017,9 -
11.12.2018 15:00:00 11,1 3,8 28 15 NW 1017,8 -
11.12.2018 14:00:00 11,4 3,3 26 14 NW 1017,3 -
11.12.2018 13:00:00 11,5 2,4 16 9 NW 1017,1 -
11.12.2018 12:00:00 10,2 5,1 15 8 W 1017,3 -
11.12.2018 11:00:00 8,8 4,6 15 8 W 1017,9 -
11.12.2018 10:00:00 7,7 3,7 16 9 S 1018,2 -
11.12.2018 09:00:00 7,1 3,3 26 14 NW 1017,7 -
11.12.2018 08:00:00 6,6 3,5 11 6 S 1017,5 -
11.12.2018 07:00:00 8,9 3,2 18 10 S 1017,1 -
11.12.2018 06:00:00 8,6 4,9 11 6 S 1015,8 -
11.12.2018 05:00:00 8,3 4,5 8 4 S 1015,7 -
11.12.2018 04:00:00 8,6 4,9 11 6 S 1015,2 -
11.12.2018 03:00:00 8,4 4,9 18 10 S 1015,3 -
11.12.2018 02:00:00 7,9 4,8 21 11 S 1015,4 -
11.12.2018 01:00:00 8,1 4,6 22 12 S 1015,1 0,0
11.12.2018 00:00:00 8,6 4,9 24 13 S 1015,0 -
10.12.2018 23:00:00 9,8 6,3 28 15 S 1015,0 -
10.12.2018 22:00:00 9,2 5,1 18 10 S 1014,8 -
10.12.2018 21:00:00 8,8 5,5 29 16 S 1014,5 -
10.12.2018 20:00:00 11,5 5,1 13 7 S 1013,6 -
10.12.2018 19:00:00 10,8 5,7 15 8 S 1012,7 -
10.12.2018 18:00:00 11,0 6,3 15 8 S 1012,9 -
10.12.2018 17:00:00 11,8 6,4 13 7 S 1012,6 -
10.12.2018 16:00:00 14,0 5,0 42 23 S 1012,4 -
10.12.2018 15:00:00 13,4 6,9 13 7 WNW 1011,7 -
10.12.2018 14:00:00 15,9 8,3 24 13 S 1011,3 -
10.12.2018 13:00:00 15,8 7,7 22 12 S 1011,4 0,0
10.12.2018 12:00:00 15,9 6,0 26 14 WNW 1011,6 -
10.12.2018 11:00:00 15,3 6,0 21 11 S 1011,9 -
10.12.2018 10:00:00 14,7 5,7 18 10 S 1011,5 -
10.12.2018 09:00:00 13,5 7,0 21 11 S 1011,2 -
10.12.2018 08:00:00 12,7 8,3 22 12 S 1010,6 -
10.12.2018 07:00:00 12,4 7,8 15 8 S 1010,1 0,0
10.12.2018 06:00:00 13,1 7,7 21 11 S 1009,8 -
10.12.2018 05:00:00 13,9 8,9 29 16 WNW 1009,3 -
10.12.2018 04:00:00 13,1 8,1 21 11 S 1008,9 -
10.12.2018 03:00:00 14,8 10,6 28 15 S 1008,7 -
10.12.2018 02:00:00 14,3 7,3 21 11 S 1008,6 -
10.12.2018 01:00:00 14,3 7,1 18 10 S 1007,8 0,0
10.12.2018 00:00:00 14,2 7,0 16 9 S 1008,0 -
09.12.2018 23:00:00 14,1 7,6 13 7 S 1007,6 -
09.12.2018 22:00:00 14,3 7,7 11 6 S 1007,7 -
09.12.2018 21:00:00 14,8 8,5 15 8 S 1007,6 -
09.12.2018 20:00:00 15,0 8,6 15 8 S 1008,0 -
09.12.2018 19:00:00 15,1 8,5 9 5 S 1008,0 0,0
09.12.2018 18:00:00 15,9 8,8 9 5 S 1008,2 -
09.12.2018 17:00:00 17,1 8,7 8 4 S 1008,3 -
09.12.2018 16:00:00 18,4 8,3 11 6 S 1008,7 -
09.12.2018 15:00:00 19,2 4,1 13 7 S 1009,1 -
09.12.2018 14:00:00 18,9 1,8 16 9 S 1009,8 -
09.12.2018 13:00:00 18,8 -1,2 5 3 S 1010,9 0,0
09.12.2018 12:00:00 17,2 -4,2 15 8 S 1011,9 -
09.12.2018 11:00:00 16,0 -2,1 8 4 S 1013,1 -
09.12.2018 10:00:00 14,3 -2,7 9 5 S 1014,4 -
09.12.2018 09:00:00 11,7 3,4 16 9 S 1015,2 -
09.12.2018 08:00:00 10,1 5,0 18 10 S 1015,2 -
09.12.2018 07:00:00 10,0 5,3 18 10 S 1015,0 0,0
09.12.2018 06:00:00 10,3 5,2 16 9 S 1015,1 -
09.12.2018 05:00:00 10,6 5,9 24 13 S 1014,9 -
09.12.2018 04:00:00 10,3 5,6 18 10 S 1014,7 -
09.12.2018 03:00:00 11,0 6,3 26 14 S 1014,5 -
09.12.2018 02:00:00 10,8 6,1 24 13 S 1014,7 -
09.12.2018 01:00:00 11,2 7,3 24 13 S 1014,2 0,0
09.12.2018 00:00:00 11,2 6,9 21 11 S 1014,4 -
08.12.2018 23:00:00 11,8 7,5 24 13 S 1014,0 -
08.12.2018 22:00:00 11,7 7,9 22 12 S 1013,7 -
08.12.2018 21:00:00 12,2 8,4 28 15 WNW 1013,2 -
08.12.2018 20:00:00 12,3 8,7 24 13 S 1012,6 -
08.12.2018 19:00:00 12,6 10,5 18 10 S 1012,2 -
08.12.2018 18:00:00 14,4 11,9 31 17 WNW 1011,3 -
08.12.2018 17:00:00 14,1 11,0 37 20 WNW 1010,8 -
08.12.2018 16:00:00 15,8 10,9 13 7 S 1009,3 -
08.12.2018 15:00:00 15,0 12,5 11 6 S 1009,3 -
08.12.2018 14:00:00 16,4 10,6 15 8 S 1009,7 -
08.12.2018 13:00:00 18,6 9,0 18 10 S 1009,8 -
08.12.2018 12:00:00 18,1 9,9 18 10 S 1010,7 -
08.12.2018 11:00:00 16,7 10,0 21 11 S 1011,7 -

tt = Température de l'air
td = dewpoint
ff = Vitesse du vent
dd = Direction du vent
ppp = reduced air pressure
rr = Quantités de précipitations

stations d'obs. à proximité